»·PEaware :: N13M KAVX-KSAN

N13M :: KAVX-KSAN

FLIGHT INFORMATION

Flight Status: Arrived
Operator: Privately registered:
United States
More flights under this callsign
Pilot: Zhuojun Y. (28503)
Aircraft: BEECH AIRCRAFT DUCHESS
(BE76)
More flights by this aircraft type
Origin: KAVX Catalina
United States
Destination: KSAN San Diego Intl-Lindbergh
United States
More flights between these airports :: More routes between these airports
Route: +SXC V208 OCN V23 MZB
File this flight plan on PilotEdge
Remarks:
Altitude:
(Current/Filed)
5,000ft
Speed:
(Current/Filed)
150kts
Departed: 14-May-20 08:44 PM
Arrived: 14-May-20 09:43 PM
Distance/Time
Traveled:
74nm/0:58
Distance/Time
To Go:
Arrived

Flight Plot

Page will automatically refresh every two minutes.


Map Options




Map Legend


Flown Route
Filed Route
Departure Airport
Arrival Airport
Navaid (VOR, NDB)
Fix

Horizontal Profiles

Position Reports

Time Latitude Longitude Heading Altitude Ground
Speed
14-May-20 20:26 33.403881 -118.414878 254 1539ft 0kts
14-May-20 20:27 33.403881 -118.414879 254 1539ft 0kts
14-May-20 20:28 33.403881 -118.414879 254 1539ft 0kts
14-May-20 20:29 33.403881 -118.414879 254 1539ft 0kts
14-May-20 20:30 33.403881 -118.414879 0 1539ft 0kts
14-May-20 20:31 33.403881 -118.414879 254 1539ft 0kts
14-May-20 20:32 33.403881 -118.414879 254 1539ft 0kts
14-May-20 20:34 33.403881 -118.414879 254 1539ft 0kts
14-May-20 20:35 33.403881 -118.414879 254 1539ft 0kts
14-May-20 20:36 33.403881 -118.414879 254 1539ft 0kts
14-May-20 20:37 33.404034 -118.415015 0 1539ft 6kts
14-May-20 20:38 33.407054 -118.411572 52 1513ft 1kts
14-May-20 20:39 33.407517 -118.411443 280 1514ft 0kts
14-May-20 20:40 33.407444 -118.411663 229 1515ft 0kts
14-May-20 20:41 33.407444 -118.411663 229 1515ft 0kts
14-May-20 20:42 33.407444 -118.411663 229 1515ft 0kts
14-May-20 20:43 33.400392 -118.422789 238 1918ft 82kts
14-May-20 20:44 33.377821 -118.433073 189 2955ft 102kts
14-May-20 20:45 33.352112 -118.440532 245 4159ft 80kts
14-May-20 20:46 33.343371 -118.449172 227 4655ft 95kts
14-May-20 20:47 33.330211 -118.426274 61 5140ft 132kts
14-May-20 20:48 33.345540 -118.379661 68 5039ft 138kts
14-May-20 20:49 33.348546 -118.336104 108 4983ft 136kts
14-May-20 20:50 33.339568 -118.297596 85 4965ft 132kts
14-May-20 20:51 33.339568 -118.297596 85 4965ft 132kts
14-May-20 20:52 33.335243 -118.219821 96 4903ft 130kts
14-May-20 20:53 33.329324 -118.179025 95 5047ft 125kts
14-May-20 20:54 33.324962 -118.137436 99 5121ft 138kts
14-May-20 20:55 33.318635 -118.087846 99 5197ft 165kts
14-May-20 20:56 33.318165 -118.084922 100 5195ft 165kts
14-May-20 20:57 33.306781 -117.977785 94 5060ft 161kts
14-May-20 20:58 33.300027 -117.924367 92 5092ft 157kts
14-May-20 20:59 33.295660 -117.886994 86 5080ft 150kts
14-May-20 21:00 33.291632 -117.825476 101 5036ft 149kts
14-May-20 21:01 33.288532 -117.791465 94 4995ft 149kts
14-May-20 21:02 33.280165 -117.728981 109 4982ft 143kts
14-May-20 21:03 33.277028 -117.681534 85 4956ft 145kts
14-May-20 21:04 33.277870 -117.633358 89 4929ft 145kts
14-May-20 21:05 33.273498 -117.586186 111 4982ft 139kts
14-May-20 21:06 33.263382 -117.541783 103 5106ft 139kts
14-May-20 21:07 33.258134 -117.496119 103 5224ft 138kts
14-May-20 21:08 33.247135 -117.452589 104 5264ft 134kts
14-May-20 21:09 33.224775 -117.422144 151 5165ft 114kts
14-May-20 21:10 33.195378 -117.405873 164 5025ft 118kts
14-May-20 21:11 33.185047 -117.400385 158 5012ft 120kts
14-May-20 21:12 33.134086 -117.377258 159 4987ft 120kts
14-May-20 21:13 33.103976 -117.360510 166 4978ft 118kts
14-May-20 21:14 33.073236 -117.345631 159 4971ft 120kts
14-May-20 21:15 33.042165 -117.332861 166 4946ft 118kts
14-May-20 21:16 33.011791 -117.317751 160 4943ft 119kts
14-May-20 21:17 32.981746 -117.301811 176 4948ft 115kts
14-May-20 21:18 32.951252 -117.291987 161 4966ft 118kts
14-May-20 21:19 32.931097 -117.281379 165 5039ft 121kts
14-May-20 21:21 32.908506 -117.271354 0 5192ft 0kts
14-May-20 21:22 32.875192 -117.263209 171 5184ft 141kts
14-May-20 21:23 32.837299 -117.248958 160 5172ft 144kts
14-May-20 21:24 32.803027 -117.225437 122 5150ft 146kts
14-May-20 21:25 32.789243 -117.180049 101 5037ft 146kts
14-May-20 21:26 32.777020 -117.133821 104 4972ft 145kts
14-May-20 21:27 32.766578 -117.087985 106 5029ft 142kts
14-May-20 21:28 32.758727 -117.052793 103 4772ft 139kts
14-May-20 21:29 32.754824 -117.035807 107 4641ft 136kts
14-May-20 21:30 32.740322 -116.968877 108 4079ft 135kts
14-May-20 21:31 32.733766 -116.942831 102 4088ft 135kts
14-May-20 21:32 32.711115 -116.930422 0 4022ft 0kts
14-May-20 21:33 32.688817 -116.953304 230 4015ft 119kts
14-May-20 21:34 32.669093 -116.982073 280 4053ft 110kts
14-May-20 21:35 32.689038 -117.006738 295 4074ft 99kts
14-May-20 21:36 32.696266 -117.040335 280 3881ft 105kts
14-May-20 21:37 32.699959 -117.057202 301 3622ft 96kts
14-May-20 21:38 32.706958 -117.088273 291 2764ft 98kts
14-May-20 21:39 32.715413 -117.116268 283 1901ft 85kts
14-May-20 21:40 32.721478 -117.138246 285 1382ft 84kts
14-May-20 21:41 32.728741 -117.169712 286 328ft 79kts
14-May-20 21:42 32.733453 -117.189236 292 20ft 18kts
14-May-20 21:43 32.734660 -117.190799 35 20ft 0kts

Navigation Log

Ident Type
Flight plan parsing failed, navigation log unavailable